Time;durP1;ratioP1;P1;durP2;ratioP2;P2;SDS_P1;SDS_P2;PMS_P1;PMS_P2;Temp;Humidity;BMP_temperature;BMP_pressure;BME280_temperature;BME280_humidity;BME280_pressure;Samples;Min_cycle;Max_cycle;Signal;HPM_P1;HPM_P2
2023/04/27 00:00:23;;;;;;;4.60;4.20;;;9.00;1.00;;;;;;5057692;28;20166;-45
2023/04/27 00:02:49;;;;;;;3.90;3.50;;;9.00;1.00;;;;;;5055809;28;20498;-43
2023/04/27 00:05:15;;;;;;;6.00;4.67;;;8.90;1.00;;;;;;5054924;28;20201;-44
2023/04/27 00:07:40;;;;;;;6.80;4.60;;;8.90;1.00;;;;;;5056286;28;20185;-44
2023/04/27 00:10:07;;;;;;;4.67;4.17;;;8.80;1.00;;;;;;5054647;28;20434;-44
2023/04/27 00:12:33;;;;;;;4.60;3.70;;;8.80;1.00;;;;;;5055631;28;20196;-47
2023/04/27 00:14:58;;;;;;;5.50;4.10;;;8.80;7.90;;;;;;5056265;28;20412;-42
2023/04/27 00:17:24;;;;;;;4.30;3.90;;;8.80;18.20;;;;;;5055719;28;20229;-44
2023/04/27 00:19:51;;;;;;;5.20;3.60;;;8.70;1.00;;;;;;5055810;28;20162;-44
2023/04/27 00:22:17;;;;;;;6.73;3.97;;;8.70;1.00;;;;;;5054297;28;20174;-44
2023/04/27 00:24:42;;;;;;;5.30;3.57;;;8.70;1.00;;;;;;5055482;28;20829;-42
2023/04/27 00:27:08;;;;;;;4.60;3.83;;;8.70;1.00;;;;;;5056973;28;20428;-42
2023/04/27 00:29:34;;;;;;;4.30;3.70;;;8.60;1.00;;;;;;5056024;28;20231;-44
2023/04/27 00:32:00;;;;;;;4.93;4.43;;;8.60;1.00;;;;;;5056216;28;20579;-43
2023/04/27 00:34:25;;;;;;;5.50;4.20;;;8.60;1.00;;;;;;5056832;28;20435;-45
2023/04/27 00:36:51;;;;;;;4.63;3.70;;;8.60;1.00;;;;;;5057038;28;20178;-43
2023/04/27 00:39:17;;;;;;;4.93;4.00;;;8.60;1.00;;;;;;5057146;28;20184;-43
2023/04/27 00:41:42;;;;;;;3.97;3.50;;;8.60;1.00;;;;;;5055863;28;20173;-43
2023/04/27 00:44:08;;;;;;;4.63;4.00;;;8.50;1.00;;;;;;5056672;28;20423;-42
2023/04/27 00:46:34;;;;;;;8.27;4.33;;;8.40;1.00;;;;;;5056395;28;20185;-44
2023/04/27 00:49:00;;;;;;;6.13;4.43;;;8.40;1.00;;;;;;5055782;28;20181;-42
2023/04/27 00:51:29;;;;;;;5.77;4.40;;;8.30;49.80;;;;;;5056619;28;20420;-43
2023/04/27 00:53:56;;;;;;;4.50;4.00;;;8.30;79.70;;;;;;5057193;28;20185;-44
2023/04/27 00:56:22;;;;;;;7.00;3.70;;;8.30;1.20;;;;;;5056503;28;20523;-42
2023/04/27 00:58:48;;;;;;;7.73;3.17;;;8.30;1.00;;;;;;5056066;28;20562;-43
2023/04/27 01:01:15;;;;;;;4.20;3.80;;;8.30;1.00;;;;;;5054670;28;20448;-42
2023/04/27 01:03:41;;;;;;;5.90;3.80;;;8.20;1.00;;;;;;5055788;28;20478;-44
2023/04/27 01:06:06;;;;;;;4.90;4.13;;;8.20;1.00;;;;;;5056284;28;20427;-44
2023/04/27 01:08:32;;;;;;;6.33;4.70;;;8.20;1.00;;;;;;5055695;28;20208;-45
2023/04/27 01:10:57;;;;;;;5.63;4.27;;;8.20;59.20;;;;;;5055176;28;20185;-43
2023/04/27 01:13:23;;;;;;;4.53;3.97;;;8.20;99.90;;;;;;5056223;28;20257;-43
2023/04/27 01:15:49;;;;;;;6.37;4.60;;;8.20;99.90;;;;;;5056066;28;20260;-41
2023/04/27 01:18:15;;;;;;;6.30;4.90;;;8.20;99.90;;;;;;5055634;28;20300;-44
2023/04/27 01:20:41;;;;;;;5.40;4.20;;;8.20;99.90;;;;;;5055924;28;20178;-45
2023/04/27 01:23:06;;;;;;;5.10;4.60;;;8.20;99.90;;;;;;5056076;28;20471;-44
2023/04/27 01:25:32;;;;;;;4.87;4.23;;;8.20;1.00;;;;;;5056210;28;20416;-43
2023/04/27 01:27:58;;;;;;;5.97;4.47;;;8.20;1.00;;;;;;5056456;28;20237;-44
2023/04/27 01:30:24;;;;;;;4.57;4.17;;;8.20;1.00;;;;;;5056569;28;20186;-42
2023/04/27 01:32:49;;;;;;;4.13;3.73;;;8.20;1.00;;;;;;5056518;28;20174;-43
2023/04/27 01:35:15;;;;;;;5.00;4.50;;;8.20;1.00;;;;;;5056232;28;20256;-43
2023/04/27 01:37:41;;;;;;;8.80;5.20;;;8.20;1.00;;;;;;5057180;28;20440;-42
2023/04/27 01:40:07;;;;;;;5.03;4.40;;;8.20;5.30;;;;;;5059003;28;20437;-42
2023/04/27 01:42:33;;;;;;;4.80;4.30;;;8.20;9.20;;;;;;5060268;28;20631;-45
2023/04/27 01:44:59;;;;;;;8.30;4.93;;;8.20;1.10;;;;;;5059345;28;20690;-43
2023/04/27 01:47:26;;;;;;;5.10;4.10;;;8.20;59.90;;;;;;5060060;28;20516;-44
2023/04/27 01:49:51;;;;;;;4.70;4.30;;;8.20;99.90;;;;;;5059960;28;20582;-46
2023/04/27 01:52:17;;;;;;;7.17;4.40;;;8.10;76.00;;;;;;5060416;28;20462;-42
2023/04/27 01:54:43;;;;;;;7.63;4.73;;;8.10;15.10;;;;;;5058694;28;20173;-43
2023/04/27 01:57:09;;;;;;;5.43;4.20;;;8.10;37.50;;;;;;5058731;28;20599;-45
2023/04/27 01:59:34;;;;;;;5.00;4.50;;;8.10;1.00;;;;;;5060521;28;20170;-46
2023/04/27 02:02:00;;;;;;;5.73;4.73;;;8.10;1.00;;;;;;5060140;28;20217;-42
2023/04/27 02:04:26;;;;;;;9.10;4.90;;;8.10;1.00;;;;;;5059367;28;20174;-46
2023/04/27 02:06:51;;;;;;;5.17;4.77;;;8.00;1.00;;;;;;5059595;28;20267;-43
2023/04/27 02:09:17;;;;;;;6.00;4.63;;;8.00;99.90;;;;;;5059103;28;20189;-43
2023/04/27 02:11:43;;;;;;;7.50;4.37;;;8.00;99.90;;;;;;5058541;28;20296;-43
2023/04/27 02:14:08;;;;;;;5.40;4.50;;;8.00;99.90;;;;;;5059743;28;20246;-45
2023/04/27 02:16:34;;;;;;;6.60;5.07;;;8.00;99.90;;;;;;5059737;28;20192;-44
2023/04/27 02:19:00;;;;;;;7.03;5.53;;;8.00;99.90;;;;;;5059214;28;20215;-42
2023/04/27 02:21:27;;;;;;;5.43;4.93;;;8.00;99.90;;;;;;5059070;28;20425;-45
2023/04/27 02:23:53;;;;;;;6.50;5.10;;;8.00;99.90;;;;;;5058602;28;20632;-42
2023/04/27 02:26:20;;;;;;;5.73;5.00;;;8.00;99.90;;;;;;5057499;28;20494;-44
2023/04/27 02:28:46;;;;;;;5.00;4.50;;;8.00;99.90;;;;;;5057756;28;20234;-43
2023/04/27 02:31:13;;;;;;;6.30;5.07;;;8.00;99.90;;;;;;5057875;28;20473;-44
2023/04/27 02:33:40;;;;;;;5.13;4.70;;;8.00;99.90;;;;;;5057359;28;20416;-43
2023/04/27 02:36:09;;;;;;;6.57;4.90;;;7.90;1.00;;;;;;5057218;28;20178;-44
2023/04/27 02:38:35;;;;;;;4.80;4.30;;;8.00;1.00;;;;;;5057286;28;20561;-42
2023/04/27 02:41:01;;;;;;;7.43;4.70;;;8.00;1.00;;;;;;5057883;28;20818;-43
2023/04/27 02:43:26;;;;;;;5.30;4.80;;;8.00;1.00;;;;;;5058025;28;20259;-45
2023/04/27 02:45:52;;;;;;;6.03;5.17;;;8.00;1.00;;;;;;5057503;28;20208;-43
2023/04/27 02:48:18;;;;;;;6.00;5.30;;;8.00;1.00;;;;;;5057867;28;20174;-42
2023/04/27 02:50:44;;;;;;;9.93;5.03;;;8.00;1.00;;;;;;5057882;28;20189;-42
2023/04/27 02:53:10;;;;;;;7.73;5.50;;;8.00;1.00;;;;;;5058164;28;20170;-43
2023/04/27 02:55:37;;;;;;;6.00;5.50;;;8.00;99.90;;;;;;5058794;28;20470;-46
2023/04/27 02:58:03;;;;;;;6.60;5.57;;;8.00;99.90;;;;;;5058615;28;20932;-45
2023/04/27 03:00:28;;;;;;;5.87;5.27;;;8.00;99.90;;;;;;5057177;28;20432;-43
2023/04/27 03:02:55;;;;;;;8.70;5.60;;;8.00;1.00;;;;;;5058583;28;20170;-43
2023/04/27 03:05:21;;;;;;;6.57;5.43;;;8.00;1.00;;;;;;5058589;28;20217;-43
2023/04/27 03:07:47;;;;;;;6.40;5.80;;;8.00;1.00;;;;;;5058477;28;20574;-43
2023/04/27 03:10:12;;;;;;;8.83;5.83;;;8.00;99.90;;;;;;5057552;28;20432;-43
2023/04/27 03:12:38;;;;;;;6.03;5.43;;;8.00;99.90;;;;;;5057140;28;20216;-43
2023/04/27 03:15:04;;;;;;;8.40;6.30;;;8.00;99.90;;;;;;5057164;28;20329;-43
2023/04/27 03:17:30;;;;;;;10.23;6.30;;;7.90;99.90;;;;;;5057134;28;20194;-43
2023/04/27 03:19:56;;;;;;;9.93;6.17;;;7.90;99.90;;;;;;5057050;28;20454;-44
2023/04/27 03:22:21;;;;;;;7.67;6.10;;;7.90;59.20;;;;;;5056997;28;20185;-43
2023/04/27 03:24:47;;;;;;;6.00;5.40;;;7.80;77.90;;;;;;5056387;28;20416;-43
2023/04/27 03:27:13;;;;;;;7.10;5.67;;;7.80;99.90;;;;;;5056247;28;20240;-42
2023/04/27 03:29:38;;;;;;;6.70;5.47;;;7.80;99.90;;;;;;5056459;28;20229;-46
2023/04/27 03:32:05;;;;;;;8.80;6.30;;;7.80;99.90;;;;;;5056364;28;20714;-45
2023/04/27 03:34:30;;;;;;;6.00;5.40;;;7.80;99.90;;;;;;5055752;28;20173;-44
2023/04/27 03:36:56;;;;;;;6.57;5.93;;;7.80;1.00;;;;;;5055258;28;20535;-43
2023/04/27 03:39:22;;;;;;;5.97;5.47;;;7.80;1.00;;;;;;5056555;28;20559;-44
2023/04/27 03:41:48;;;;;;;6.57;5.83;;;7.80;1.00;;;;;;5055632;28;20462;-45
2023/04/27 03:44:14;;;;;;;5.50;4.90;;;7.80;1.00;;;;;;5056516;28;20239;-43
2023/04/27 03:46:39;;;;;;;6.80;5.70;;;7.80;99.90;;;;;;5057399;28;20271;-43
2023/04/27 03:49:06;;;;;;;5.93;5.03;;;7.80;99.90;;;;;;5055973;28;20444;-44
2023/04/27 03:51:34;;;;;;;8.60;5.80;;;7.80;1.00;;;;;;5056093;28;20446;-45
2023/04/27 03:54:00;;;;;;;6.50;4.87;;;7.80;99.90;;;;;;5053793;28;20440;-43
2023/04/27 03:56:26;;;;;;;7.50;6.17;;;7.80;1.00;;;;;;5054168;28;20423;-43
2023/04/27 03:58:52;;;;;;;7.63;5.67;;;7.80;1.00;;;;;;5056359;28;20210;-43
2023/04/27 04:01:17;;;;;;;7.20;5.80;;;7.80;1.00;;;;;;5055556;28;20236;-44
2023/04/27 04:03:44;;;;;;;8.30;6.10;;;7.80;1.00;;;;;;5055822;28;20184;-44
2023/04/27 04:06:09;;;;;;;8.60;6.40;;;7.80;99.90;;;;;;5056845;28;20174;-43
2023/04/27 04:08:36;;;;;;;7.50;5.83;;;7.80;99.90;;;;;;5056304;28;20826;-44
2023/04/27 04:11:02;;;;;;;6.17;5.60;;;7.70;1.00;;;;;;5057171;28;20267;-45
2023/04/27 04:13:28;;;;;;;6.67;5.97;;;7.70;1.00;;;;;;5056928;28;20423;-46
2023/04/27 04:16:07;;;;;;;9.63;5.73;;;7.80;99.90;;;;;;5055266;28;20432;-43
2023/04/27 04:18:33;;;;;;;7.30;5.90;;;7.80;1.00;;;;;;5056888;28;20220;-43
2023/04/27 04:20:59;;;;;;;7.10;6.50;;;7.70;1.00;;;;;;5053499;28;20421;-44
2023/04/27 04:23:25;;;;;;;6.83;6.13;;;7.70;1.00;;;;;;5052302;28;20507;-42
2023/04/27 04:25:51;;;;;;;7.80;5.83;;;7.70;1.00;;;;;;5054691;28;20511;-42
2023/04/27 04:28:17;;;;;;;7.93;6.13;;;7.60;22.00;;;;;;5054174;28;21029;-44
2023/04/27 04:30:42;;;;;;;6.83;5.67;;;7.60;99.90;;;;;;5055475;28;20454;-44
2023/04/27 04:33:08;;;;;;;7.37;5.90;;;7.60;99.90;;;;;;5054421;28;20263;-43
2023/04/27 04:35:38;;;;;;;8.70;6.37;;;7.70;99.90;;;;;;5054522;28;20451;-43
2023/04/27 04:38:04;;;;;;;7.63;6.23;;;7.70;99.90;;;;;;5053815;28;20769;-43
2023/04/27 04:40:30;;;;;;;7.30;6.23;;;7.70;99.90;;;;;;5055830;28;20432;-44
2023/04/27 04:42:57;;;;;;;10.87;7.00;;;7.80;99.90;;;;;;5055605;28;20439;-44
2023/04/27 04:45:23;;;;;;;8.43;7.40;;;7.80;99.90;;;;;;5055947;28;20428;-47
2023/04/27 04:47:49;;;;;;;6.30;5.80;;;7.80;55.60;;;;;;5054252;28;20767;-46
2023/04/27 04:50:15;;;;;;;6.53;5.90;;;7.90;1.00;;;;;;5054358;28;20185;-44
2023/04/27 04:52:40;;;;;;;8.07;6.97;;;7.90;1.00;;;;;;5055330;28;20432;-46
2023/04/27 04:55:06;;;;;;;6.70;6.07;;;8.00;1.00;;;;;;5053732;28;20182;-44
2023/04/27 04:57:32;;;;;;;9.50;7.50;;;8.00;99.90;;;;;;5054461;28;20227;-44
2023/04/27 04:59:58;;;;;;;7.27;6.57;;;8.00;99.90;;;;;;5054629;28;20494;-44
2023/04/27 05:02:23;;;;;;;7.97;6.30;;;8.10;99.90;;;;;;5052728;28;20450;-46
2023/04/27 05:04:51;;;;;;;7.87;6.17;;;8.10;1.00;;;;;;5053476;28;20182;-45
2023/04/27 05:07:16;;;;;;;10.63;6.23;;;8.10;1.00;;;;;;5053775;28;20273;-44
2023/04/27 05:09:42;;;;;;;6.17;5.57;;;8.10;1.00;;;;;;5053475;28;20523;-44
2023/04/27 05:12:08;;;;;;;7.23;6.53;;;8.20;1.00;;;;;;5050702;28;20431;-45
2023/04/27 05:14:34;;;;;;;6.37;5.80;;;8.30;1.00;;;;;;5057371;28;20216;-44
2023/04/27 05:17:00;;;;;;;7.10;6.20;;;8.30;99.90;;;;;;5055417;28;20487;-43
2023/04/27 05:19:28;;;;;;;6.87;6.03;;;8.40;1.00;;;;;;5053928;28;20424;-43
2023/04/27 05:21:54;;;;;;;6.77;6.10;;;8.50;99.90;;;;;;5051987;28;20416;-44
2023/04/27 05:24:20;;;;;;;6.30;5.70;;;8.50;93.20;;;;;;5033714;28;20435;-45
2023/04/27 05:26:45;;;;;;;6.60;6.00;;;8.60;1.00;;;;;;5052151;28;20416;-45
2023/04/27 05:29:11;;;;;;;6.67;6.07;;;8.70;9.70;;;;;;5051375;28;20241;-45
2023/04/27 05:31:37;;;;;;;7.60;5.73;;;8.80;1.00;;;;;;5053960;28;20618;-44
2023/04/27 05:34:02;;;;;;;7.53;6.13;;;8.90;1.00;;;;;;5053690;28;20444;-45
2023/04/27 05:36:28;;;;;;;6.90;6.10;;;9.00;1.00;;;;;;5054796;28;20177;-46
2023/04/27 05:38:55;;;;;;;6.10;5.50;;;9.10;1.00;;;;;;5052723;28;20308;-44
2023/04/27 05:41:20;;;;;;;6.50;5.60;;;9.30;1.00;;;;;;5052406;28;20174;-44
2023/04/27 05:43:46;;;;;;;7.43;5.80;;;9.40;99.90;;;;;;5054834;28;20443;-43
2023/04/27 05:46:15;;;;;;;7.53;5.93;;;9.40;1.00;;;;;;5055187;28;20386;-45
2023/04/27 05:48:41;;;;;;;6.60;5.43;;;9.50;1.00;;;;;;5053178;28;20209;-43
2023/04/27 05:51:06;;;;;;;7.80;5.30;;;9.60;99.90;;;;;;5052641;28;20529;-43
2023/04/27 05:53:33;;;;;;;6.60;4.67;;;9.70;99.90;;;;;;5054712;28;20186;-44
2023/04/27 05:56:00;;;;;;;6.73;4.47;;;9.80;99.90;;;;;;5054520;28;20173;-45
2023/04/27 05:58:26;;;;;;;5.57;4.43;;;9.90;99.90;;;;;;5053632;28;20463;-46
2023/04/27 06:00:53;;;;;;;5.70;4.53;;;10.10;43.10;;;;;;5054472;28;20420;-45
2023/04/27 06:03:18;;;;;;;5.43;4.87;;;10.10;1.00;;;;;;5056565;28;20408;-43
2023/04/27 06:05:59;;;;;;;5.00;4.50;;;10.30;1.00;;;;;;5054055;28;21094;-45
2023/04/27 06:08:29;;;;;;;5.20;4.63;;;10.40;1.00;;;;;;5054456;28;20201;-45
2023/04/27 06:10:55;;;;;;;4.80;4.00;;;10.60;1.00;;;;;;5052988;28;20425;-44
2023/04/27 06:13:21;;;;;;;7.40;5.17;;;10.70;1.00;;;;;;5054701;28;20419;-46
2023/04/27 06:15:47;;;;;;;6.70;4.83;;;10.70;1.00;;;;;;5054074;28;20768;-44
2023/04/27 06:18:13;;;;;;;7.70;5.73;;;10.80;1.00;;;;;;5053483;28;20464;-44
2023/04/27 06:20:38;;;;;;;8.10;5.03;;;10.80;1.00;;;;;;5055477;28;20272;-44
2023/04/27 06:23:04;;;;;;;9.80;6.60;;;10.90;1.00;;;;;;5055628;28;20201;-45
2023/04/27 06:25:30;;;;;;;10.60;5.97;;;10.90;1.00;;;;;;5055366;28;20252;-43
2023/04/27 06:27:56;;;;;;;9.50;6.03;;;10.70;1.00;;;;;;5055938;28;20234;-45
2023/04/27 06:30:23;;;;;;;8.90;6.23;;;10.80;1.00;;;;;;5056512;28;20186;-43
2023/04/27 06:32:49;;;;;;;7.10;5.27;;;10.80;1.00;;;;;;5056538;28;20416;-43
2023/04/27 06:35:15;;;;;;;8.53;5.03;;;10.90;1.00;;;;;;5055361;28;20428;-48
2023/04/27 06:37:41;;;;;;;6.97;6.10;;;11.00;1.00;;;;;;5055334;28;20460;-45
2023/04/27 06:40:07;;;;;;;5.33;4.80;;;11.30;1.00;;;;;;5056400;28;20432;-44
2023/04/27 06:42:33;;;;;;;6.10;5.50;;;11.40;1.00;;;;;;5056022;28;20182;-44
2023/04/27 06:44:59;;;;;;;7.47;5.40;;;11.50;1.00;;;;;;5037509;28;20941;-44
2023/04/27 06:47:25;;;;;;;6.60;6.00;;;11.50;1.00;;;;;;5055603;28;20507;-44
2023/04/27 06:49:51;;;;;;;9.40;5.43;;;11.50;1.00;;;;;;5054209;28;20436;-43
2023/04/27 06:52:16;;;;;;;10.53;6.13;;;11.50;1.00;;;;;;5055354;28;20177;-44
2023/04/27 06:54:42;;;;;;;8.20;6.07;;;11.60;1.00;;;;;;5054489;28;20258;-44
2023/04/27 06:57:08;;;;;;;9.50;5.87;;;11.80;1.00;;;;;;5053179;28;20251;-43
2023/04/27 06:59:34;;;;;;;6.40;4.87;;;12.00;1.00;;;;;;5037644;28;20533;-42
2023/04/27 07:02:00;;;;;;;6.33;5.50;;;12.20;1.00;;;;;;5036861;28;20215;-44
2023/04/27 07:04:26;;;;;;;7.43;5.60;;;12.50;1.00;;;;;;5035140;28;20500;-43
2023/04/27 07:06:52;;;;;;;7.40;4.97;;;12.80;1.00;;;;;;5035473;28;20262;-45
2023/04/27 07:09:17;;;;;;;6.67;5.30;;;13.00;1.00;;;;;;5035174;28;20182;-43
2023/04/27 07:11:43;;;;;;;6.93;5.03;;;13.10;1.00;;;;;;5034475;28;20179;-45
2023/04/27 07:14:09;;;;;;;5.50;5.00;;;13.30;1.00;;;;;;5035588;28;20197;-43
2023/04/27 07:16:35;;;;;;;8.40;4.87;;;13.50;1.00;;;;;;5050161;28;20212;-44
2023/04/27 07:19:01;;;;;;;7.17;5.70;;;13.60;1.00;;;;;;5052824;28;20479;-44
2023/04/27 07:21:27;;;;;;;6.47;5.77;;;13.50;1.00;;;;;;5050727;28;20498;-45
2023/04/27 07:23:53;;;;;;;6.00;5.30;;;13.30;1.00;;;;;;5052568;28;20706;-45
2023/04/27 07:26:20;;;;;;;6.67;5.50;;;13.30;1.00;;;;;;5054077;28;20420;-44
2023/04/27 07:28:46;;;;;;;6.83;6.13;;;13.50;1.00;;;;;;5049603;28;20755;-44
2023/04/27 07:31:12;;;;;;;7.60;5.60;;;13.80;1.00;;;;;;5051456;28;20416;-43
2023/04/27 07:33:38;;;;;;;7.70;5.33;;;14.10;1.00;;;;;;5050553;28;20367;-48
2023/04/27 07:36:04;;;;;;;8.03;4.87;;;14.30;1.00;;;;;;5050451;28;20405;-43
2023/04/27 07:38:30;;;;;;;8.10;5.30;;;14.60;1.00;;;;;;5049946;28;20490;-43
2023/04/27 07:41:00;;;;;;;6.00;5.30;;;14.90;1.00;;;;;;5048920;28;20499;-45
2023/04/27 07:43:26;;;;;;;12.37;5.27;;;15.10;1.00;;;;;;5047817;28;20423;-45
2023/04/27 07:45:54;;;;;;;5.80;5.20;;;15.40;1.00;;;;;;5049696;28;20459;-45
2023/04/27 07:48:21;;;;;;;5.83;5.13;;;15.80;1.00;;;;;;5053571;28;20412;-44
2023/04/27 07:50:47;;;;;;;6.73;5.70;;;16.00;1.00;;;;;;5052163;28;20432;-44
2023/04/27 07:53:12;;;;;;;7.23;4.77;;;16.10;1.00;;;;;;5051657;28;20469;-44
2023/04/27 07:55:38;;;;;;;9.17;4.37;;;16.00;1.00;;;;;;5052474;28;20276;-45
2023/04/27 07:58:04;;;;;;;7.00;5.07;;;16.20;1.00;;;;;;5052787;28;20313;-46
2023/04/27 08:00:29;;;;;;;6.93;4.40;;;16.50;1.00;;;;;;5052918;28;20277;-44
2023/04/27 08:02:55;;;;;;;3.43;2.90;;;16.80;1.00;;;;;;5051994;28;20189;-46
2023/04/27 08:05:21;;;;;;;4.23;3.83;;;17.40;1.00;;;;;;5051487;28;20189;-47
2023/04/27 08:07:47;;;;;;;6.73;4.27;;;17.70;1.00;;;;;;5053183;28;20268;-46
2023/04/27 08:10:13;;;;;;;4.83;4.23;;;17.70;1.00;;;;;;5052584;28;21122;-49
2023/04/27 08:12:39;;;;;;;6.70;4.10;;;17.40;1.00;;;;;;5053576;28;20197;-48
2023/04/27 08:15:09;;;;;;;6.10;4.03;;;17.60;1.00;;;;;;5054608;28;20538;-45
2023/04/27 08:17:36;;;;;;;4.57;4.13;;;18.00;1.00;;;;;;5054339;28;20498;-48
2023/04/27 08:20:01;;;;;;;7.00;4.40;;;18.60;1.00;;;;;;5054529;28;20423;-45
2023/04/27 08:22:27;;;;;;;4.83;3.93;;;19.10;1.00;;;;;;5053835;28;20450;-43
2023/04/27 08:24:53;;;;;;;4.73;3.67;;;19.60;1.00;;;;;;5054177;28;20436;-46
2023/04/27 08:27:18;;;;;;;5.30;4.30;;;19.70;1.00;;;;;;5053932;28;20259;-45
2023/04/27 08:29:46;;;;;;;6.07;4.43;;;20.10;1.00;;;;;;5052967;28;20486;-46
2023/04/27 08:32:12;;;;;;;5.73;3.87;;;20.40;1.00;;;;;;5052619;28;20258;-45
2023/04/27 08:34:38;;;;;;;10.30;4.30;;;20.40;1.00;;;;;;5052067;28;20444;-45
2023/04/27 08:37:03;;;;;;;4.93;3.87;;;20.30;1.00;;;;;;5052860;28;20178;-46
2023/04/27 08:39:29;;;;;;;6.00;3.47;;;19.20;1.00;;;;;;5052321;28;20619;-47
2023/04/27 08:41:55;;;;;;;4.10;3.70;;;18.30;1.00;;;;;;5051507;28;20183;-45
2023/04/27 08:44:21;;;;;;;5.47;3.03;;;18.40;1.00;;;;;;5052358;28;20192;-46
2023/04/27 08:46:46;;;;;;;5.97;3.70;;;18.80;1.00;;;;;;5054436;28;20181;-47
2023/04/27 08:49:12;;;;;;;5.50;2.90;;;19.20;1.00;;;;;;5055865;28;20563;-45
2023/04/27 08:51:38;;;;;;;6.50;3.17;;;19.70;1.00;;;;;;5055477;28;20244;-46
2023/04/27 08:54:03;;;;;;;5.90;3.60;;;20.20;1.00;;;;;;5052883;28;20186;-45
2023/04/27 08:56:29;;;;;;;4.23;2.90;;;20.40;1.00;;;;;;5056044;28;20247;-44
2023/04/27 08:58:56;;;;;;;5.43;3.83;;;20.40;1.00;;;;;;5056658;28;20213;-45
2023/04/27 09:01:23;;;;;;;6.70;3.47;;;20.10;1.00;;;;;;5055218;28;20416;-45
2023/04/27 09:03:55;;;;;;;5.57;3.17;;;20.40;1.00;;;;;;5055964;28;20431;-44
2023/04/27 09:06:32;;;;;;;4.13;3.33;;;20.20;1.00;;;;;;5056364;28;20511;-44
2023/04/27 09:08:58;;;;;;;8.27;4.07;;;20.00;1.00;;;;;;5054713;28;20432;-46
2023/04/27 09:11:35;;;;;;;7.03;3.63;;;19.80;1.00;;;;;;5054305;28;20408;-45
2023/04/27 09:14:02;;;;;;;5.63;3.67;;;20.00;1.00;;;;;;5055228;28;20510;-47
2023/04/27 09:16:29;;;;;;;3.70;3.10;;;20.00;1.00;;;;;;5055730;28;20443;-47
2023/04/27 09:18:56;;;;;;;4.70;2.87;;;20.10;1.00;;;;;;5055963;28;20479;-45
2023/04/27 09:21:30;;;;;;;4.73;3.53;;;20.30;1.00;;;;;;5055570;28;20412;-46
2023/04/27 09:23:56;;;;;;;3.13;2.73;;;20.40;1.00;;;;;;5055988;28;20886;-45
2023/04/27 09:26:23;;;;;;;3.93;2.63;;;20.60;1.00;;;;;;5056861;28;20427;-45
2023/04/27 09:28:54;;;;;;;3.60;2.63;;;21.00;1.00;;;;;;5054617;28;20498;-45
2023/04/27 09:31:20;;;;;;;4.50;3.50;;;21.50;1.00;;;;;;5054550;28;20420;-44
2023/04/27 09:33:53;;;;;;;4.13;3.23;;;21.00;1.00;;;;;;5054563;28;20432;-45
2023/04/27 09:36:19;;;;;;;4.20;3.70;;;21.10;1.00;;;;;;5054641;28;20186;-44
2023/04/27 09:38:46;;;;;;;4.97;3.63;;;21.20;1.00;;;;;;5053169;28;20714;-44
2023/04/27 09:41:12;;;;;;;4.60;3.30;;;21.20;1.00;;;;;;5051568;28;20417;-44
2023/04/27 09:43:37;;;;;;;5.20;3.70;;;20.90;1.00;;;;;;5052223;28;20682;-45
2023/04/27 09:46:04;;;;;;;8.33;3.97;;;20.60;1.00;;;;;;5051707;28;20415;-46
2023/04/27 09:48:30;;;;;;;7.00;4.40;;;20.60;1.00;;;;;;5053459;28;21039;-45
2023/04/27 09:50:55;;;;;;;4.87;3.50;;;20.80;1.00;;;;;;5053432;28;20446;-45
2023/04/27 09:53:31;;;;;;;4.47;3.50;;;21.30;1.00;;;;;;5053531;28;20201;-45
2023/04/27 09:56:02;;;;;;;7.33;3.30;;;21.90;1.00;;;;;;5053139;28;20181;-51
2023/04/27 09:58:50;;;;;;;4.17;3.37;;;22.60;1.00;;;;;;5052740;28;20471;-45
2023/04/27 10:01:47;;;;;;;5.23;3.50;;;22.30;1.00;;;;;;5052268;28;20408;-43
2023/04/27 10:04:50;;;;;;;4.70;3.63;;;21.50;1.00;;;;;;5052126;28;20439;-45
2023/04/27 10:07:16;;;;;;;5.50;4.03;;;21.40;1.00;;;;;;5055398;28;20484;-44
2023/04/27 10:09:43;;;;;;;6.53;4.30;;;20.20;1.00;;;;;;5054406;28;20826;-44
2023/04/27 10:12:25;;;;;;;6.43;3.83;;;19.70;1.00;;;;;;5052035;28;20567;-45
2023/04/27 10:14:56;;;;;;;4.30;3.90;;;19.50;1.00;;;;;;5037439;28;20741;-47
2023/04/27 10:17:30;;;;;;;5.97;4.03;;;19.60;1.00;;;;;;5054344;28;20460;-46
2023/04/27 10:20:06;;;;;;;3.57;3.03;;;19.50;1.00;;;;;;5053556;28;20511;-47
2023/04/27 10:22:41;;;;;;;4.30;3.30;;;19.80;1.00;;;;;;5052030;28;20527;-46
2023/04/27 10:25:16;;;;;;;4.77;3.33;;;20.60;1.00;;;;;;5052389;28;20436;-45
2023/04/27 10:27:41;;;;;;;6.63;4.23;;;21.70;1.00;;;;;;5053771;28;20467;-45
2023/04/27 10:30:11;;;;;;;7.40;4.10;;;21.50;1.00;;;;;;5051478;28;20765;-44
2023/04/27 10:32:37;;;;;;;3.97;3.27;;;21.70;1.00;;;;;;5051413;28;20276;-44
2023/04/27 10:35:08;;;;;;;5.70;3.87;;;22.50;1.00;;;;;;5051417;28;20519;-44
2023/04/27 10:37:41;;;;;;;3.80;3.37;;;23.60;1.00;;;;;;5051161;28;20487;-46
2023/04/27 10:40:16;;;;;;;6.20;3.37;;;24.60;1.00;;;;;;5053594;28;20424;-45
2023/04/27 10:42:42;;;;;;;4.93;3.30;;;25.40;1.00;;;;;;5054508;28;21049;-46
2023/04/27 10:45:08;;;;;;;4.30;3.17;;;26.10;1.00;;;;;;5055727;28;20539;-45
2023/04/27 10:47:39;;;;;;;5.83;3.67;;;26.50;1.00;;;;;;5054030;28;20412;-45
2023/04/27 10:50:07;;;;;;;4.83;2.90;;;26.60;1.00;;;;;;5053663;28;20872;-46
2023/04/27 10:52:33;;;;;;;4.67;3.07;;;24.80;1.00;;;;;;5054097;28;20436;-47
2023/04/27 10:55:11;;;;;;;4.07;2.80;;;25.00;1.00;;;;;;5053142;28;20493;-45
2023/04/27 10:57:48;;;;;;;3.40;3.07;;;25.70;1.00;;;;;;5054667;28;20209;-47
2023/04/27 11:00:25;;;;;;;4.00;3.53;;;26.20;1.00;;;;;;5051124;28;20427;-46
2023/04/27 11:02:53;;;;;;;3.30;3.00;;;24.80;1.00;;;;;;5051649;28;20791;-45
2023/04/27 11:05:24;;;;;;;4.80;3.10;;;23.90;1.00;;;;;;5051438;28;20425;-46
2023/04/27 11:07:50;;;;;;;3.73;3.33;;;23.80;1.00;;;;;;5053080;28;20420;-47
2023/04/27 11:10:21;;;;;;;3.57;3.00;;;23.80;1.00;;;;;;5054409;28;20826;-46
2023/04/27 11:12:47;;;;;;;6.80;3.93;;;24.10;1.00;;;;;;5054683;28;20819;-47
2023/04/27 11:15:14;;;;;;;5.00;2.87;;;23.90;1.00;;;;;;5054774;28;20524;-46
2023/04/27 11:17:40;;;;;;;3.27;2.70;;;24.00;1.00;;;;;;5050779;28;20487;-47
2023/04/27 11:20:08;;;;;;;4.97;3.27;;;24.50;1.00;;;;;;5050185;28;20834;-47
2023/04/27 11:22:44;;;;;;;5.13;3.40;;;24.90;1.00;;;;;;5051607;28;20419;-48
2023/04/27 11:25:10;;;;;;;3.87;3.10;;;25.00;1.00;;;;;;5032684;28;20744;-46
2023/04/27 11:27:37;;;;;;;3.60;3.23;;;24.90;1.00;;;;;;5048760;28;20476;-49
2023/04/27 11:30:06;;;;;;;3.63;3.20;;;24.70;1.00;;;;;;5048891;28;20819;-47
2023/04/27 11:32:32;;;;;;;6.00;4.10;;;25.10;1.00;;;;;;5050096;28;20424;-47
2023/04/27 11:34:58;;;;;;;5.70;3.53;;;25.00;1.00;;;;;;5047468;28;20519;-45
2023/04/27 11:37:25;;;;;;;6.20;4.03;;;25.20;1.00;;;;;;5049512;28;20588;-47
2023/04/27 11:39:53;;;;;;;4.00;3.60;;;25.50;1.00;;;;;;5050735;28;20190;-47
2023/04/27 11:42:27;;;;;;;4.00;3.60;;;25.70;1.00;;;;;;5049649;28;20424;-45
2023/04/27 11:44:57;;;;;;;5.87;4.23;;;25.60;1.00;;;;;;5050456;28;20424;-44
2023/04/27 11:47:24;;;;;;;5.00;4.50;;;25.60;1.00;;;;;;5051003;28;20419;-46
2023/04/27 11:49:51;;;;;;;6.27;3.77;;;24.90;1.00;;;;;;5050858;28;20463;-47
2023/04/27 11:52:17;;;;;;;4.30;3.30;;;24.60;1.00;;;;;;5048641;28;20404;-46
2023/04/27 11:54:55;;;;;;;4.03;3.63;;;24.50;1.00;;;;;;5048870;28;20455;-48
2023/04/27 11:57:25;;;;;;;4.20;3.80;;;24.70;1.00;;;;;;5051318;28;20412;-45
2023/04/27 11:59:52;;;;;;;4.73;4.30;;;24.70;1.00;;;;;;5052389;28;20416;-45
2023/04/27 12:02:18;;;;;;;4.20;3.77;;;24.80;1.00;;;;;;5053849;28;20510;-45
2023/04/27 12:04:44;;;;;;;5.10;4.27;;;24.90;1.00;;;;;;5050605;28;20518;-45
2023/04/27 12:07:11;;;;;;;4.47;3.50;;;24.60;1.00;;;;;;5033057;28;20535;-44
2023/04/27 12:09:36;;;;;;;4.90;3.60;;;24.20;1.00;;;;;;5032444;28;20429;-44
2023/04/27 12:12:03;;;;;;;4.20;3.30;;;23.80;1.00;;;;;;5029416;28;20804;-45
2023/04/27 12:14:28;;;;;;;4.50;3.23;;;23.40;1.00;;;;;;5030648;28;20243;-45
2023/04/27 12:16:54;;;;;;;4.80;4.27;;;23.50;1.00;;;;;;5031533;28;20890;-46
2023/04/27 12:19:19;;;;;;;5.40;3.77;;;23.10;1.00;;;;;;5033526;28;20320;-47
2023/04/27 12:21:45;;;;;;;4.77;3.90;;;23.30;1.00;;;;;;5038032;28;20263;-45
2023/04/27 12:24:11;;;;;;;6.77;3.63;;;23.50;1.00;;;;;;5053100;28;20563;-46
2023/04/27 12:26:37;;;;;;;5.80;4.13;;;24.10;1.00;;;;;;5052068;28;20174;-47
2023/04/27 12:29:03;;;;;;;6.17;4.77;;;24.10;1.00;;;;;;5050580;28;20237;-45
2023/04/27 12:31:30;;;;;;;3.63;3.10;;;23.90;1.00;;;;;;5050298;28;20813;-45
2023/04/27 12:33:55;;;;;;;4.97;2.90;;;23.90;1.00;;;;;;5051768;28;20482;-48
2023/04/27 12:36:21;;;;;;;4.20;3.13;;;23.90;1.00;;;;;;5049655;28;20749;-45
2023/04/27 12:38:47;;;;;;;3.37;3.03;;;23.70;1.00;;;;;;5051279;28;20209;-44
2023/04/27 12:41:12;;;;;;;4.40;3.17;;;23.70;1.00;;;;;;5052231;28;20268;-44
2023/04/27 12:43:39;;;;;;;4.03;2.50;;;23.90;1.00;;;;;;5051407;28;20213;-46
2023/04/27 12:46:05;;;;;;;3.43;2.53;;;23.90;1.00;;;;;;5053618;28;20186;-45
2023/04/27 12:48:32;;;;;;;6.20;3.00;;;23.50;1.00;;;;;;5053660;28;20423;-44
2023/04/27 12:50:58;;;;;;;3.13;2.50;;;22.80;1.00;;;;;;5053186;28;20323;-47
2023/04/27 12:53:24;;;;;;;4.60;3.73;;;22.10;1.00;;;;;;5053864;28;20420;-45
2023/04/27 12:55:49;;;;;;;3.53;2.90;;;21.10;1.00;;;;;;5054142;28;20447;-47
2023/04/27 12:58:15;;;;;;;3.10;2.80;;;20.80;1.00;;;;;;5049667;28;20224;-45